createdAt,value
2022-08-17T00:02:27.284Z,97491.75
2022-08-17T00:05:36.755Z,97497.59
2022-08-17T00:08:51.023Z,97494.78
2022-08-17T00:12:35.567Z,97502.25
2022-08-17T00:15:17.167Z,97492.88
2022-08-17T00:19:01.268Z,97498.19
2022-08-17T00:22:32.563Z,97504.97
2022-08-17T00:25:16.594Z,97501.44
2022-08-17T00:28:19.084Z,97501.00
2022-08-17T00:31:23.856Z,97504.53
2022-08-17T00:34:25.705Z,97513.84
2022-08-17T00:37:31.481Z,97515.16
2022-08-17T00:40:44.507Z,97513.72
2022-08-17T00:43:57.636Z,97509.88
2022-08-17T00:46:59.364Z,97515.16
2022-08-17T00:50:03.575Z,97497.53
2022-08-17T00:53:05.940Z,97505.75
2022-08-17T00:56:12.316Z,97495.91
2022-08-17T00:59:19.197Z,97498.00
2022-08-17T01:02:22.298Z,97506.13
2022-08-17T01:05:31.766Z,97500.19
2022-08-17T01:08:35.319Z,97498.56
2022-08-17T01:11:46.740Z,97500.97
2022-08-17T01:14:50.656Z,97505.63
2022-08-17T01:17:53.254Z,97500.97
2022-08-17T01:20:58.117Z,97510.03
2022-08-17T01:24:01.475Z,97506.13
2022-08-17T01:27:10.479Z,97509.94
2022-08-17T01:30:56.662Z,97506.81
2022-08-17T01:33:37.907Z,97509.13
2022-08-17T01:36:43.557Z,97507.72
2022-08-17T01:39:52.951Z,97501.63
2022-08-17T01:43:01.371Z,97511.84
2022-08-17T01:46:05.106Z,97505.16
2022-08-17T01:49:11.369Z,97513.91
2022-08-17T01:52:14.073Z,97507.78
2022-08-17T01:55:18.554Z,97505.41
2022-08-17T01:58:21.788Z,97507.88
2022-08-17T02:01:27.786Z,97506.69
2022-08-17T02:04:29.829Z,97507.25
2022-08-17T02:07:31.675Z,97498.44
2022-08-17T02:10:52.281Z,97502.13
2022-08-17T02:13:55.067Z,97503.25
2022-08-17T02:17:05.169Z,97492.09
2022-08-17T02:20:09.396Z,97498.84
2022-08-17T02:23:13.020Z,97494.25
2022-08-17T02:26:25.900Z,97492.34
2022-08-17T02:29:28.851Z,97493.19
2022-08-17T02:32:30.699Z,97487.41
2022-08-17T02:35:32.624Z,97496.19
2022-08-17T02:38:36.502Z,97498.44
2022-08-17T02:41:39.422Z,97504.25
2022-08-17T02:44:42.363Z,97502.66
2022-08-17T02:47:47.326Z,97502.09
2022-08-17T02:50:51.717Z,97501.50
2022-08-17T02:54:39.148Z,97508.88
2022-08-17T02:57:18.471Z,97498.50
2022-08-17T03:00:25.216Z,97501.16
2022-08-17T03:03:27.684Z,97499.56
2022-08-17T03:06:29.759Z,97502.03
2022-08-17T03:09:31.684Z,97508.56
2022-08-17T03:12:35.373Z,97507.75
2022-08-17T03:15:40.572Z,97505.25
2022-08-17T03:18:46.094Z,97506.06
2022-08-17T03:21:55.216Z,97517.97
2022-08-17T03:24:57.455Z,97509.84
2022-08-17T03:28:00.039Z,97510.47
2022-08-17T03:31:03.335Z,97519.69
2022-08-17T03:34:05.251Z,97521.25
2022-08-17T03:37:07.369Z,97518.59
2022-08-17T03:40:10.173Z,97514.31
2022-08-17T03:43:12.409Z,97517.16
2022-08-17T03:46:35.016Z,97518.19
2022-08-17T03:49:55.912Z,97516.97
2022-08-17T03:53:16.488Z,97516.38
2022-08-17T03:56:37.038Z,97525.34
2022-08-17T03:59:39.467Z,97521.59
2022-08-17T04:02:43.320Z,97520.34
2022-08-17T04:05:48.207Z,97519.13
2022-08-17T04:08:49.968Z,97531.25
2022-08-17T04:11:52.339Z,97521.19
2022-08-17T04:14:55.147Z,97525.44
2022-08-17T04:17:58.429Z,97530.47
2022-08-17T04:21:00.497Z,97527.19
2022-08-17T04:24:03.105Z,97534.84
2022-08-17T04:27:05.108Z,97533.41
2022-08-17T04:30:07.792Z,97531.91
2022-08-17T04:33:14.334Z,97534.34
2022-08-17T04:36:17.185Z,97537.81
2022-08-17T04:39:18.987Z,97531.03
2022-08-17T04:42:20.997Z,97535.50
2022-08-17T04:45:22.772Z,97552.81
2022-08-17T04:48:36.955Z,97545.34
2022-08-17T04:51:54.686Z,97550.81
2022-08-17T04:54:58.856Z,97557.47
2022-08-17T04:58:00.806Z,97558.75
2022-08-17T05:01:03.633Z,97573.56
2022-08-17T05:04:32.903Z,97576.97
2022-08-17T05:07:31.720Z,97570.91
2022-08-17T05:10:37.358Z,97567.13
2022-08-17T05:13:50.303Z,97570.66
2022-08-17T05:16:52.333Z,97567.59
2022-08-17T05:19:54.425Z,97566.13
2022-08-17T05:22:58.709Z,97570.84
2022-08-17T05:26:00.614Z,97579.53
2022-08-17T05:29:04.130Z,97575.59
2022-08-17T05:32:38.059Z,97586.38
2022-08-17T05:35:35.680Z,97583.41
2022-08-17T05:38:38.124Z,97588.38
2022-08-17T05:41:40.109Z,97587.13
2022-08-17T05:44:41.914Z,97589.44
2022-08-17T05:47:44.976Z,97594.19
2022-08-17T05:50:54.449Z,97592.50
2022-08-17T05:54:08.787Z,97591.56
2022-08-17T05:57:53.478Z,97578.72
2022-08-17T06:01:21.084Z,97581.75
2022-08-17T06:04:41.692Z,97583.75
2022-08-17T06:07:49.687Z,97588.28
2022-08-17T06:11:37.289Z,97595.13
2022-08-17T06:15:01.630Z,97583.25
2022-08-17T06:18:06.937Z,97582.75
2022-08-17T06:21:13.299Z,97588.94
2022-08-17T06:24:43.241Z,97581.19
2022-08-17T06:27:53.715Z,97580.03
2022-08-17T06:31:01.479Z,97583.69
2022-08-17T06:34:10.217Z,97579.19
2022-08-17T06:37:31.341Z,97586.38
2022-08-17T06:40:57.033Z,97585.56
2022-08-17T06:44:49.798Z,97586.59
2022-08-17T06:47:42.987Z,97584.34
2022-08-17T06:50:50.043Z,97581.09
2022-08-17T06:53:59.708Z,97584.63
2022-08-17T06:57:16.782Z,97587.34
2022-08-17T07:00:24.619Z,97584.13
2022-08-17T07:03:45.497Z,97580.22
2022-08-17T07:06:51.737Z,97581.81
2022-08-17T07:09:57.682Z,97589.44
2022-08-17T07:13:10.365Z,97594.47
2022-08-17T07:16:19.604Z,97583.00
2022-08-17T07:19:23.795Z,97594.38
2022-08-17T07:23:07.106Z,97581.56
2022-08-17T07:26:09.779Z,97579.97
2022-08-17T07:29:17.013Z,97583.66
2022-08-17T07:32:40.955Z,97587.03
2022-08-17T07:35:44.966Z,97582.56
2022-08-17T07:38:58.994Z,97588.28
2022-08-17T07:42:05.127Z,97593.41
2022-08-17T07:45:28.509Z,97602.56
2022-08-17T07:48:36.292Z,97598.78
2022-08-17T07:51:41.158Z,97591.78
2022-08-17T07:54:43.383Z,97600.16
2022-08-17T07:57:55.254Z,97601.78
2022-08-17T08:01:13.512Z,97603.59
2022-08-17T08:04:43.162Z,97595.25
2022-08-17T08:07:48.515Z,97599.81
2022-08-17T08:11:10.656Z,97597.50
2022-08-17T08:14:34.253Z,97596.13
2022-08-17T08:17:47.290Z,97590.66
2022-08-17T08:20:54.151Z,97594.34
2022-08-17T08:24:26.174Z,97585.66
2022-08-17T08:28:08.219Z,97589.34
2022-08-17T08:31:26.700Z,97593.38
2022-08-17T08:35:02.022Z,97592.28
2022-08-17T08:38:09.493Z,97594.59
2022-08-17T08:41:19.988Z,97588.88
2022-08-17T08:45:04.133Z,97601.59
2022-08-17T08:48:46.030Z,97589.09
2022-08-17T08:51:56.137Z,97587.66
2022-08-17T08:55:26.259Z,97581.72
2022-08-17T08:58:50.908Z,97585.97
2022-08-17T09:02:20.574Z,97583.25
2022-08-17T09:05:30.558Z,97580.78
2022-08-17T09:08:55.359Z,97582.28
2022-08-17T09:12:25.750Z,97586.75
2022-08-17T09:15:32.245Z,97587.28
2022-08-17T09:19:03.583Z,97589.09
2022-08-17T09:22:21.527Z,97587.13
2022-08-17T09:25:29.930Z,97593.13
2022-08-17T09:28:37.515Z,97592.72
2022-08-17T09:31:49.933Z,97587.50
2022-08-17T09:35:00.516Z,97586.31
2022-08-17T09:38:02.780Z,97581.34
2022-08-17T09:41:48.741Z,97581.09
2022-08-17T09:45:00.166Z,97590.88
2022-08-17T09:48:08.967Z,97595.53
2022-08-17T09:51:21.683Z,97590.50
2022-08-17T09:54:40.276Z,97590.06
2022-08-17T09:58:11.999Z,97586.19
2022-08-17T10:01:31.951Z,97583.59
2022-08-17T10:05:07.241Z,97586.19
2022-08-17T10:08:24.425Z,97585.38
2022-08-17T10:11:58.711Z,97584.53
2022-08-17T10:15:42.800Z,97584.97
2022-08-17T10:18:47.968Z,97595.34
2022-08-17T10:22:14.660Z,97589.28
2022-08-17T10:25:55.916Z,97586.19
2022-08-17T10:29:06.909Z,97578.13
2022-08-17T10:32:14.620Z,97582.06
2022-08-17T10:35:34.424Z,97584.03
2022-08-17T10:38:50.246Z,97583.13
2022-08-17T10:41:56.173Z,97591.81
2022-08-17T10:45:36.106Z,97581.34
2022-08-17T10:48:39.197Z,97583.06
2022-08-17T10:51:42.147Z,97574.38
2022-08-17T10:54:48.678Z,97577.28
2022-08-17T10:57:51.001Z,97579.38
2022-08-17T11:00:57.663Z,97577.25
2022-08-17T11:04:21.617Z,97577.66
2022-08-17T11:07:32.658Z,97580.91
2022-08-17T11:10:55.982Z,97578.44
2022-08-17T11:14:30.154Z,97579.72
2022-08-17T11:17:50.467Z,97571.56
2022-08-17T11:21:40.638Z,97567.19
2022-08-17T11:24:48.137Z,97561.06
2022-08-17T11:27:54.014Z,97567.81
2022-08-17T11:30:59.456Z,97563.19
2022-08-17T11:34:05.179Z,97557.84
2022-08-17T11:37:29.073Z,97553.63
2022-08-17T11:40:34.230Z,97545.72
2022-08-17T11:43:44.705Z,97547.81
2022-08-17T11:47:18.595Z,97542.88
2022-08-17T11:50:39.225Z,97540.59
2022-08-17T11:53:41.279Z,97526.53
2022-08-17T11:56:49.097Z,97531.34
2022-08-17T11:59:54.290Z,97523.75
2022-08-17T12:03:26.870Z,97521.38
2022-08-17T12:06:51.835Z,97514.50
2022-08-17T12:09:54.301Z,97508.47
2022-08-17T12:12:56.458Z,97502.28
2022-08-17T12:15:59.082Z,97514.13
2022-08-17T12:19:02.855Z,97505.63
2022-08-17T12:22:26.934Z,97507.16
2022-08-17T12:26:12.458Z,97512.47
2022-08-17T12:29:18.211Z,97511.25
2022-08-17T12:32:40.790Z,97501.25
2022-08-17T12:35:43.530Z,97500.81
2022-08-17T12:39:12.872Z,97491.50
2022-08-17T12:42:35.175Z,97500.34
2022-08-17T12:45:42.044Z,97500.38
2022-08-17T12:48:55.076Z,97505.34
2022-08-17T12:52:15.511Z,97506.38
2022-08-17T12:55:23.203Z,97493.53
2022-08-17T12:58:34.010Z,97496.97
2022-08-17T13:01:42.008Z,97496.22
2022-08-17T13:04:44.507Z,97497.16
2022-08-17T13:07:47.240Z,97496.81
2022-08-17T13:11:02.418Z,97497.31
2022-08-17T13:14:11.107Z,97486.31
2022-08-17T13:17:14.087Z,97480.44
2022-08-17T13:20:16.528Z,97482.16
2022-08-17T13:23:20.149Z,97487.41
2022-08-17T13:26:29.726Z,97482.75
2022-08-17T13:29:31.837Z,97482.94
2022-08-17T13:32:36.311Z,97492.13
2022-08-17T13:35:39.898Z,97478.94
2022-08-17T13:38:52.762Z,97476.13
2022-08-17T13:41:56.540Z,97471.88
2022-08-17T13:44:59.241Z,97467.38
2022-08-17T13:48:16.672Z,97465.09
2022-08-17T13:51:42.418Z,97465.94
2022-08-17T13:54:51.372Z,97463.78
2022-08-17T13:58:07.181Z,97455.75
2022-08-17T14:01:28.903Z,97461.34
2022-08-17T14:04:32.175Z,97459.09
2022-08-17T14:07:37.526Z,97461.00
2022-08-17T14:10:39.427Z,97462.22
2022-08-17T14:13:41.489Z,97464.69
2022-08-17T14:16:44.218Z,97466.19
2022-08-17T14:19:46.197Z,97461.78
2022-08-17T14:22:54.418Z,97463.28
2022-08-17T14:25:56.458Z,97456.91
2022-08-17T14:28:58.470Z,97463.28
2022-08-17T14:32:15.210Z,97454.16
2022-08-17T14:35:17.764Z,97454.94
2022-08-17T14:38:20.258Z,97460.78
2022-08-17T14:41:23.829Z,97461.72
2022-08-17T14:44:25.783Z,97465.50
2022-08-17T14:47:27.671Z,97460.66
2022-08-17T14:50:29.885Z,97468.09
2022-08-17T14:53:33.970Z,97462.84
2022-08-17T14:56:38.068Z,97464.56
2022-08-17T14:59:40.280Z,97466.81
2022-08-17T15:02:46.129Z,97471.75
2022-08-17T15:05:48.700Z,97471.13
2022-08-17T15:08:51.470Z,97476.44
2022-08-17T15:11:54.106Z,97479.78
2022-08-17T15:14:57.175Z,97479.16
2022-08-17T15:18:00.381Z,97480.59
2022-08-17T15:21:05.929Z,97487.19
2022-08-17T15:24:09.588Z,97488.91
2022-08-17T15:27:11.629Z,97483.66
2022-08-17T15:30:15.451Z,97477.16
2022-08-17T15:33:21.354Z,97475.44
2022-08-17T15:36:23.503Z,97475.28
2022-08-17T15:39:25.536Z,97468.34
2022-08-17T15:42:29.429Z,97465.97
2022-08-17T15:45:33.936Z,97465.28
2022-08-17T15:48:42.563Z,97466.09
2022-08-17T15:51:44.607Z,97472.34
2022-08-17T15:54:51.419Z,97471.28
2022-08-17T15:57:53.772Z,97476.81
2022-08-17T16:01:14.824Z,97475.00
2022-08-17T16:04:26.529Z,97478.91
2022-08-17T16:07:32.441Z,97473.75
2022-08-17T16:10:35.698Z,97468.75
2022-08-17T16:13:39.774Z,97470.31
2022-08-17T16:16:42.103Z,97470.31
2022-08-17T16:19:44.745Z,97466.00
2022-08-17T16:22:47.212Z,97458.78
2022-08-17T16:25:53.432Z,97466.75
2022-08-17T16:28:57.783Z,97473.63
2022-08-17T16:32:09.097Z,97471.34
2022-08-17T16:35:12.466Z,97478.75
2022-08-17T16:38:14.330Z,97483.38
2022-08-17T16:41:36.613Z,97469.72
2022-08-17T16:44:38.489Z,97475.75
2022-08-17T16:47:46.008Z,97478.06
2022-08-17T16:51:03.503Z,97474.53
2022-08-17T16:54:07.278Z,97481.97
2022-08-17T16:57:15.031Z,97482.91
2022-08-17T17:00:18.359Z,97478.13
2022-08-17T17:03:23.930Z,97484.25
2022-08-17T17:06:40.132Z,97481.38
2022-08-17T17:09:43.918Z,97478.84
2022-08-17T17:13:01.689Z,97480.84
2022-08-17T17:16:09.240Z,97487.19
2022-08-17T17:19:11.235Z,97494.47
2022-08-17T17:22:30.405Z,97496.66
2022-08-17T17:25:49.014Z,97489.69
2022-08-17T17:29:23.523Z,97486.94
2022-08-17T17:32:38.035Z,97495.84
2022-08-17T17:35:57.397Z,97500.38
2022-08-17T17:39:05.480Z,97499.34
2022-08-17T17:42:20.201Z,97514.13
2022-08-17T17:45:26.186Z,97509.38
2022-08-17T17:48:29.165Z,97509.00
2022-08-17T17:52:10.955Z,97512.00
2022-08-17T17:55:35.942Z,97516.72
2022-08-17T17:58:50.045Z,97516.81
2022-08-17T18:02:07.465Z,97513.09
2022-08-17T18:05:21.386Z,97523.44
2022-08-17T18:08:45.888Z,97516.47
2022-08-17T18:12:08.802Z,97521.38
2022-08-17T18:15:41.094Z,97520.31
2022-08-17T18:18:47.011Z,97518.41
2022-08-17T18:21:56.714Z,97529.78
2022-08-17T18:24:59.266Z,97527.91
2022-08-17T18:28:02.402Z,97526.28
2022-08-17T18:31:17.701Z,97528.69
2022-08-17T18:34:43.819Z,97532.75
2022-08-17T18:37:53.100Z,97534.59
2022-08-17T18:41:21.006Z,97538.34
2022-08-17T18:44:31.424Z,97544.28
2022-08-17T18:47:34.325Z,97547.22
2022-08-17T18:50:41.597Z,97551.50
2022-08-17T18:53:44.250Z,97553.13
2022-08-17T18:57:12.816Z,97553.28
2022-08-17T19:00:26.765Z,97548.44
2022-08-17T19:03:29.730Z,97556.50
2022-08-17T19:06:34.342Z,97562.16
2022-08-17T19:09:40.822Z,97557.28
2022-08-17T19:13:12.961Z,97559.13
2022-08-17T19:16:39.323Z,97565.50
2022-08-17T19:19:58.595Z,97564.13
2022-08-17T19:23:36.082Z,97573.19
2022-08-17T19:26:53.474Z,97571.06
2022-08-17T19:30:07.142Z,97579.19
2022-08-17T19:33:11.317Z,97585.13
2022-08-17T19:36:36.299Z,97571.66
2022-08-17T19:39:41.313Z,97569.97
2022-08-17T19:42:52.614Z,97572.28
2022-08-17T19:46:18.482Z,97569.25
2022-08-17T19:49:45.786Z,97576.28
2022-08-17T19:53:04.302Z,97570.56
2022-08-17T19:56:35.480Z,97571.81
2022-08-17T19:59:51.255Z,97578.63
2022-08-17T20:03:06.457Z,97572.75
2022-08-17T20:06:14.169Z,97572.19
2022-08-17T20:09:24.314Z,97565.63
2022-08-17T20:12:35.996Z,97557.38
2022-08-17T20:15:39.944Z,97549.41
2022-08-17T20:19:04.300Z,97553.94
2022-08-17T20:22:11.811Z,97554.97
2022-08-17T20:25:30.413Z,97562.16
2022-08-17T20:28:35.556Z,97555.25
2022-08-17T20:31:49.051Z,97565.44
2022-08-17T20:35:04.835Z,97555.09
2022-08-17T20:38:08.350Z,97560.44
2022-08-17T20:41:17.139Z,97561.47
2022-08-17T20:44:32.682Z,97561.53
2022-08-17T20:48:01.173Z,97562.94
2022-08-17T20:51:29.899Z,97556.41
2022-08-17T20:55:03.544Z,97560.34
2022-08-17T20:58:16.410Z,97556.59
2022-08-17T21:01:36.508Z,97548.34
2022-08-17T21:04:50.563Z,97547.97
2022-08-17T21:07:56.801Z,97549.03
2022-08-17T21:11:03.872Z,97552.72
2022-08-17T21:14:26.193Z,97553.84
2022-08-17T21:18:06.981Z,97545.72
2022-08-17T21:21:17.561Z,97559.56
2022-08-17T21:24:31.741Z,97548.84
2022-08-17T21:27:56.749Z,97557.28
2022-08-17T21:31:06.711Z,97550.25
2022-08-17T21:34:26.308Z,97544.50
2022-08-17T21:37:35.533Z,97556.28
2022-08-17T21:40:37.671Z,97551.16
2022-08-17T21:43:48.128Z,97550.53
2022-08-17T21:46:52.441Z,97553.72
2022-08-17T21:49:55.532Z,97550.38
2022-08-17T21:52:58.735Z,97547.75
2022-08-17T21:56:00.995Z,97560.59
2022-08-17T21:59:06.663Z,97568.78
2022-08-17T22:02:17.563Z,97579.50
2022-08-17T22:05:31.509Z,97578.31
2022-08-17T22:08:35.532Z,97586.81
2022-08-17T22:11:57.900Z,97599.06
2022-08-17T22:15:01.114Z,97606.72
2022-08-17T22:18:06.451Z,97594.69
2022-08-17T22:21:09.075Z,97601.84
2022-08-17T22:24:23.370Z,97608.31
2022-08-17T22:27:52.648Z,97610.94
2022-08-17T22:31:05.945Z,97609.28
2022-08-17T22:34:14.113Z,97608.25
2022-08-17T22:37:29.235Z,97611.25
2022-08-17T22:40:33.376Z,97614.78
2022-08-17T22:43:38.586Z,97614.13
2022-08-17T22:47:02.725Z,97610.66
2022-08-17T22:50:13.278Z,97601.56
2022-08-17T22:53:37.516Z,97609.03
2022-08-17T22:57:18.707Z,97613.16
2022-08-17T23:00:33.862Z,97614.38
2022-08-17T23:03:53.917Z,97621.16
2022-08-17T23:06:56.092Z,97619.75
2022-08-17T23:10:00.704Z,97620.47
2022-08-17T23:13:03.187Z,97616.28
2022-08-17T23:16:05.227Z,97613.59
2022-08-17T23:19:08.553Z,97612.53
2022-08-17T23:22:11.569Z,97618.41
2022-08-17T23:25:17.722Z,97614.78
2022-08-17T23:28:22.762Z,97608.91
2022-08-17T23:31:25.785Z,97610.41
2022-08-17T23:34:30.291Z,97606.59
2022-08-17T23:37:32.907Z,97600.91
2022-08-17T23:40:34.735Z,97587.28
2022-08-17T23:43:39.306Z,97587.97
2022-08-17T23:46:41.777Z,97585.88
2022-08-17T23:49:44.278Z,97582.03
2022-08-17T23:52:47.554Z,97581.16
2022-08-17T23:56:09.017Z,97572.69
2022-08-17T23:59:13.911Z,97555.25
